M I D A S
Marine Information and Data Acquisition System
Tripno 1153 of the Zeeleeuw from 2006-08-25 06:30:52 to 2006-08-25 13:53:13
Back to CruiseResearch ActivitiesStationsMapUnderway DataData graphs

EquipmentUnitsComment
TimeDGPSUTC
LatitudeDGPSDM.mWGS84
LongitudeDGPSDM.mWGS84
TemperatureSBE03/SBE38deg celciusITS90
ConductivitySBE21S/mITS90
SalinitySBE21 Practical Salinity Units
ChlorophylAChelsea fluorimeterg/lCalibrated in Aceton
Missing or incorrect values are displayed as -999
Sea surface data collected by the RV Zeeleeuw from 2006-08-25 06:23:06 to 2006-08-25 14:06:03
Time Latitude Longitude Temperature Conductivity Salinity ChlorophylA
2006-08-25 06:24:11 51°13.617 2°56.032 23.8448 4.841255 31.411873 0.162614
2006-08-25 06:25:12 51°13.645 2°55.938 20.8413 4.840939 31.41412 0.263742
2006-08-25 06:26:12 51°13.672 2°55.84 19.3122 3.713081 26.193503 1.039059
2006-08-25 06:27:11 51°13.683 2°55.758 19.1594 3.484928 24.83473 1.005349
2006-08-25 06:28:11 51°13.689 2°55.749 19.106 3.385618 24.129011 1.072768
2006-08-25 06:29:11 51°13.737 2°55.721 19.2182 3.109564 22.012593 1.241315
2006-08-25 06:30:10 51°13.826 2°55.639 19.1563 2.886034 20.246115 1.409862
2006-08-25 06:31:11 51°13.942 2°55.556 19.1437 2.865622 20.101965 1.443571
2006-08-25 06:32:10 51°14.059 2°55.473 19.0304 3.04578 21.520557 1.308734
2006-08-25 06:33:10 51°14.172 2°55.383 19.0244 3.134512 22.247922 1.308734
2006-08-25 06:34:11 51°14.269 2°55.245 18.9932 3.138302 22.300787 1.275024
2006-08-25 06:35:10 51°14.365 2°55.064 18.9477 3.254422 23.22066 1.207606
2006-08-25 06:36:11 51°14.462 2°54.828 18.8485 3.507788 25.262079 1.140187
2006-08-25 06:37:11 51°14.543 2°54.549 18.785 3.885262 28.356215 1.039059
2006-08-25 06:38:11 51°14.628 2°54.26 18.7422 4.243608 31.316853 0.97164
2006-08-25 06:39:11 51°14.708 2°53.967 18.7232 4.400688 32.63583 0.870512
2006-08-25 06:40:11 51°14.793 2°53.682 18.7217 4.470274 33.240533 0.836802
2006-08-25 06:41:10 51°14.878 2°53.404 18.7139 4.512027 33.596907 0.735674
2006-08-25 06:42:10 51°14.96 2°53.113 18.704 4.53554 33.794149 0.701965
2006-08-25 06:43:11 51°15.041 2°52.811 18.7068 4.545241 33.882136 0.634546
2006-08-25 06:44:11 51°15.11 2°52.504 18.709 4.554309 33.961376 0.600836
2006-08-25 06:45:11 51°15.179 2°52.199 18.7072 4.562006 34.023311 0.600836
2006-08-25 06:46:11 51°15.248 2°51.891 18.704 4.561585 34.025683 0.634546
2006-08-25 06:47:11 51°15.292 2°51.569 18.6923 4.553255 33.961398 0.600836
2006-08-25 06:48:11 51°15.267 2°51.232 18.6915 4.550092 33.939683 0.634546
2006-08-25 06:49:11 51°15.252 2°50.892 18.6992 4.545136 33.895938 0.600836
2006-08-25 06:50:11 51°15.239 2°50.554 18.7007 4.544187 33.888601 0.600836
2006-08-25 06:51:11 51°15.228 2°50.217 18.708 4.5425 33.868641 0.634546
2006-08-25 06:52:11 51°15.225 2°49.879 18.7124 4.542921 33.86688 0.600836
2006-08-25 06:53:11 51°15.224 2°49.542 18.7187 4.538176 33.823758 0.600836
2006-08-25 06:54:11 51°15.222 2°49.204 18.7285 4.555996 33.966638 0.567127
2006-08-25 06:55:11 51°15.218 2°48.866 18.7323 4.566013 34.040858 0.567127
2006-08-25 06:56:11 51°15.216 2°48.53 18.7494 4.57603 34.11625 0.533418
2006-08-25 06:57:11 51°15.213 2°48.193 18.752 4.579615 34.136145 0.533418
2006-08-25 06:58:11 51°15.219 2°47.861 18.7538 4.583306 34.165782 0.499708
2006-08-25 06:59:11 51°15.22 2°47.531 18.7493 4.587101 34.195117 0.499708
2006-08-25 07:00:11 51°15.221 2°47.199 18.7528 4.590792 34.231867 0.432289
2006-08-25 07:01:11 51°15.229 2°46.869 18.7588 4.593534 34.249436 0.39858
2006-08-25 07:02:11 51°15.236 2°46.535 18.7766 4.595959 34.261988 0.39858
2006-08-25 07:03:11 51°15.244 2°46.199 18.7779 4.598068 34.268338 0.39858
2006-08-25 07:04:11 51°15.251 2°45.865 18.7845 4.599438 34.27682 0.364871
2006-08-25 07:05:09 51°15.26 2°45.542 18.7959 4.598911 34.266492 0.432289
2006-08-25 07:06:11 51°15.272 2°45.195 18.7989 4.598067 34.251158 0.432289
2006-08-25 07:07:11 51°15.282 2°44.857 18.7952 4.595009 34.223863 0.432289
2006-08-25 07:08:10 51°15.288 2°44.528 18.7907 4.58805 34.168748 0.465999
2006-08-25 07:09:10 51°15.303 2°44.196 18.789 4.584465 34.141789 0.432289
2006-08-25 07:10:11 51°15.321 2°43.858 18.793 4.58341 34.135352 0.432289
2006-08-25 07:11:11 51°15.341 2°43.527 18.8058 4.58225 34.119187 0.465999
2006-08-25 07:12:11 51°15.355 2°43.197 18.8173 4.586573 34.145808 0.499708
2006-08-25 07:13:11 51°15.335 2°42.865 18.8223 4.591635 34.179166 0.465999
2006-08-25 07:14:11 51°15.313 2°42.531 18.8189 4.593216 34.190585 0.465999
2006-08-25 07:15:10 51°15.308 2°42.215 18.8083 4.596063 34.217285 0.465999
2006-08-25 07:16:10 51°15.338 2°42.05 18.7972 4.599016 34.251974 0.432289
2006-08-25 07:17:10 51°15.365 2°41.971 18.7983 4.600176 34.270538 0.432289
2006-08-25 07:18:11 51°15.394 2°41.912 18.7972 4.600598 34.274651 0.39858
2006-08-25 07:19:11 51°15.423 2°41.871 18.8023 4.600809 34.275226 0.39858
2006-08-25 07:20:11 51°15.447 2°41.835 18.8128 4.601758 34.279 0.39858
2006-08-25 07:21:11 51°15.44 2°41.813 18.8113 4.602812 34.280099 0.39858
2006-08-25 07:22:11 51°15.418 2°41.799 18.8068 4.602496 34.281013 0.39858
2006-08-25 07:23:11 51°15.395 2°41.784 18.8067 4.601969 34.278983 0.39858
2006-08-25 07:24:10 51°15.372 2°41.764 18.8044 4.602601 34.284263 0.39858
2006-08-25 07:25:10 51°15.349 2°41.738 18.8036 4.601441 34.27636 0.432289
2006-08-25 07:26:11 51°15.328 2°41.708 18.8016 4.602496 34.285754 0.39858
2006-08-25 07:27:11 51°15.31 2°41.683 18.7965 4.601969 34.284316 0.432289
2006-08-25 07:28:10 51°15.292 2°41.664 18.7943 4.601336 34.281998 0.39858
2006-08-25 07:29:11 51°15.276 2°41.649 18.798 4.60102 34.281135 0.39858
2006-08-25 07:30:11 51°15.258 2°41.637 18.7965 4.601758 34.285519 0.39858
2006-08-25 07:31:11 51°15.242 2°41.622 18.7848 4.601336 34.282591 0.39858
2006-08-25 07:32:11 51°15.228 2°41.615 18.7883 4.600176 34.28417 0.39858
2006-08-25 07:33:11 51°15.248 2°41.615 18.7925 4.600598 34.28117 0.432289
2006-08-25 07:34:10 51°15.289 2°41.539 18.8004 4.600387 34.278224 0.39858
2006-08-25 07:35:11 51°15.297 2°41.392 18.8055 4.601758 34.278408 0.39858
2006-08-25 07:36:10 51°15.289 2°41.344 18.8086 4.602496 34.283383 0.39858
2006-08-25 07:37:11 51°15.263 2°41.338 18.807 4.602707 34.283958 0.39858
2006-08-25 07:38:11 51°15.245 2°41.323 18.8047 4.602812 34.287209 0.432289
2006-08-25 07:39:10 51°15.225 2°41.313 18.8033 4.602707 34.286921 0.39858
2006-08-25 07:40:11 51°15.207 2°41.304 18.8023 4.602812 34.287802 0.432289
2006-08-25 07:41:11 51°15.19 2°41.293 18.8041 4.602918 34.289867 0.39858
2006-08-25 07:42:11 51°15.173 2°41.281 18.8017 4.602707 34.288699 0.39858
2006-08-25 07:43:10 51°15.154 2°41.267 18.7996 4.602391 34.286651 0.39858
2006-08-25 07:44:11 51°15.135 2°41.251 18.7986 4.602285 34.286364 0.432289
2006-08-25 07:45:11 51°15.116 2°41.236 18.8032 4.602601 34.289005 0.39858
2006-08-25 07:46:11 51°15.098 2°41.221 18.8053 4.602601 34.286041 0.39858
2006-08-25 07:47:11 51°15.078 2°41.205 18.8047 4.602812 34.285431 0.432289
2006-08-25 07:48:11 51°15.059 2°41.19 18.806 4.602707 34.285144 0.432289
2006-08-25 07:49:11 51°15.036 2°41.163 18.8055 4.602812 34.286024 0.432289
2006-08-25 07:50:11 51°15.028 2°41.073 18.8017 4.60239 34.284281 0.432289
2006-08-25 07:51:11 51°15.068 2°41.03 18.7993 4.602496 34.286939 0.39858
2006-08-25 07:52:10 51°15.096 2°41.015 18.8012 4.602707 34.288699 0.432289
2006-08-25 07:53:11 51°15.092 2°41 18.8032 4.602812 34.28958 0.39858
2006-08-25 07:54:11 51°15.077 2°40.994 18.806 4.602918 34.288682 0.465999
2006-08-25 07:55:11 51°15.074 2°40.986 18.8048 4.603023 34.288969 0.432289
2006-08-25 07:56:10 51°15.067 2°40.978 18.8164 4.602812 34.288394 0.39858
2006-08-25 07:57:10 51°15.053 2°40.972 18.8161 4.603234 34.281842 0.39858
2006-08-25 07:58:11 51°15.035 2°40.964 18.8046 4.603867 34.288899 0.432289
2006-08-25 07:59:11 51°15.015 2°40.953 18.8049 4.602812 34.286616 0.39858
2006-08-25 08:00:10 51°14.996 2°40.942 18.8057 4.603129 34.288664 0.39858
2006-08-25 08:01:10 51°14.976 2°40.928 18.8015 4.602812 34.287802 0.39858
2006-08-25 08:02:11 51°14.955 2°40.913 18.8019 4.602601 34.287227 0.39858
2006-08-25 08:03:10 51°14.934 2°40.898 18.8046 4.602601 34.285449 0.364871
2006-08-25 08:04:11 51°14.917 2°40.892 18.8136 4.603129 34.289257 0.364871
2006-08-25 08:05:11 51°14.937 2°40.885 18.8086 4.603023 34.284229 0.39858
2006-08-25 08:06:10 51°14.95 2°40.81 18.8114 4.603023 34.285414 0.39858
2006-08-25 08:07:11 51°14.951 2°40.739 18.8081 4.603972 34.290371 0.432289
2006-08-25 08:08:10 51°14.948 2°40.7 18.809 4.603445 34.288934 0.39858
2006-08-25 08:09:09 51°14.935 2°40.678 18.8091 4.603445 34.288341 0.39858
2006-08-25 08:10:11 51°14.919 2°40.658 18.8113 4.603339 34.286869 0.432289
2006-08-25 08:11:10 51°14.902 2°40.642 18.8091 4.603445 34.285971 0.432289
2006-08-25 08:12:10 51°14.879 2°40.632 18.8072 4.604078 34.294214 0.432289
2006-08-25 08:13:10 51°14.856 2°40.626 18.8072 4.603761 34.291574 0.465999
2006-08-25 08:14:10 51°14.833 2°40.624 18.8081 4.603445 34.289526 0.432289
2006-08-25 08:15:11 51°14.812 2°40.62 18.8113 4.603129 34.285701 0.432289
2006-08-25 08:16:11 51°14.791 2°40.615 18.8101 4.603867 34.290084 0.465999
2006-08-25 08:17:10 51°14.771 2°40.606 18.8115 4.603761 34.290389 0.432289
2006-08-25 08:18:10 51°14.749 2°40.596 18.8102 4.603761 34.288019 0.465999
2006-08-25 08:19:11 51°14.721 2°40.579 18.8114 4.603339 34.284499 0.432289
2006-08-25 08:20:11 51°14.686 2°40.502 18.8108 4.603445 34.285379 0.432289
2006-08-25 08:21:10 51°14.701 2°40.42 18.8054 4.603023 34.284229 0.432289
2006-08-25 08:22:10 51°14.742 2°40.382 18.8074 4.603023 34.286599 0.432289
2006-08-25 08:23:10 51°14.778 2°40.347 18.812 4.603445 34.288934 0.432289
2006-08-25 08:24:10 51°14.791 2°40.311 18.8134 4.603972 34.288594 0.432289
2006-08-25 08:25:10 51°14.779 2°40.292 18.8117 4.604183 34.290353 0.432289
2006-08-25 08:26:10 51°14.767 2°40.273 18.814 4.603867 34.289491 0.465999
2006-08-25 08:27:10 51°14.752 2°40.257 18.817 4.603867 34.285936 0.39858
2006-08-25 08:28:10 51°14.731 2°40.244 18.8149 4.604394 34.289743 0.432289
2006-08-25 08:29:11 51°14.706 2°40.235 18.8184 4.603972 34.288594 0.465999
2006-08-25 08:30:10 51°14.682 2°40.232 18.8156 4.604394 34.288559 0.465999
2006-08-25 08:31:11 51°14.659 2°40.23 18.8146 4.604394 34.289151 0.465999
2006-08-25 08:32:10 51°14.638 2°40.228 18.8179 4.604288 34.288271 0.499708
2006-08-25 08:33:11 51°14.618 2°40.224 18.8169 4.604183 34.285022 0.465999
2006-08-25 08:34:11 51°14.599 2°40.217 18.8143 4.603972 34.286816 0.465999
2006-08-25 08:35:11 51°14.569 2°40.183 18.8156 4.603972 34.286816 0.465999
2006-08-25 08:36:10 51°14.56 2°40.086 18.8165 4.604077 34.285919 0.432289
2006-08-25 08:37:10 51°14.602 2°40.031 18.812 4.604183 34.288576 0.465999
2006-08-25 08:38:10 51°14.642 2°39.984 18.818 4.60471 34.294161 0.432289
2006-08-25 08:39:10 51°14.661 2°39.933 18.8148 4.604605 34.291503 0.432289
2006-08-25 08:40:10 51°14.657 2°39.908 18.8102 4.603761 34.285649 0.432289
2006-08-25 08:41:10 51°14.642 2°39.894 18.8086 4.603867 34.291269 0.432289
2006-08-25 08:42:10 51°14.627 2°39.882 18.8092 4.603761 34.290389 0.465999
2006-08-25 08:43:11 51°14.618 2°39.87 18.8174 4.603867 34.291861 0.432289
2006-08-25 08:44:10 51°14.613 2°39.857 18.8152 4.604605 34.287949 0.432289
2006-08-25 08:45:10 51°14.606 2°39.844 18.8328 4.604921 34.292958 0.39858
2006-08-25 08:46:10 51°14.599 2°39.83 18.8169 4.605448 34.293803 0.432289
2006-08-25 08:47:10 51°14.586 2°39.818 18.8239 4.604499 34.290031 0.465999
2006-08-25 08:48:10 51°14.567 2°39.809 18.8184 4.605026 34.290876 0.465999
2006-08-25 08:49:10 51°14.543 2°39.802 18.8225 4.604921 34.290588 0.432289
2006-08-25 08:50:10 51°14.536 2°39.798 18.8282 4.605343 34.29233 0.432289
2006-08-25 08:51:11 51°14.54 2°39.787 18.8262 4.606608 34.294002 0.432289
2006-08-25 08:52:11 51°14.557 2°39.676 18.8242 4.605343 34.291146 0.432289
2006-08-25 08:53:10 51°14.535 2°39.498 18.8201 4.605132 34.291163 0.465999
2006-08-25 08:54:10 51°14.47 2°39.398 18.8168 4.605237 34.29382 0.465999
2006-08-25 08:55:10 51°14.436 2°39.311 18.8166 4.605343 34.29233 0.465999
2006-08-25 08:56:11 51°14.415 2°39.27 18.8145 4.604816 34.291486 0.499708
2006-08-25 08:57:11 51°14.395 2°39.282 18.8114 4.60471 34.293568 0.533418
2006-08-25 08:58:10 51°14.379 2°39.285 18.8105 4.602918 34.282164 0.533418
2006-08-25 08:59:11 51°14.363 2°39.281 18.814 4.603128 34.282146 0.499708
2006-08-25 09:00:11 51°14.345 2°39.272 18.8085 4.604394 34.290928 0.465999
2006-08-25 09:01:11 51°14.325 2°39.261 18.8112 4.604078 34.291251 0.499708
2006-08-25 09:02:11 51°14.305 2°39.248 18.8147 4.604394 34.292113 0.533418
2006-08-25 09:03:11 51°14.283 2°39.235 18.8201 4.604605 34.290911 0.499708
2006-08-25 09:04:11 51°14.262 2°39.221 18.8198 4.604921 34.288811 0.465999
2006-08-25 09:05:11 51°14.24 2°39.206 18.8172 4.605026 34.291468 0.465999
2006-08-25 09:06:11 51°14.218 2°39.191 18.816 4.604394 34.288559 0.499708
2006-08-25 09:07:11 51°14.196 2°39.176 18.8229 4.60471 34.290013 0.499708
2006-08-25 09:08:11 51°14.175 2°39.159 18.8253 4.605237 34.289673 0.499708
2006-08-25 09:09:11 51°14.152 2°39.142 18.8233 4.605343 34.288776 0.465999
2006-08-25 09:10:11 51°14.13 2°39.125 18.8233 4.604288 34.280571 0.465999
2006-08-25 09:11:10 51°14.107 2°39.107 18.8242 4.602917 34.272688 0.465999
2006-08-25 09:12:11 51°14.085 2°39.09 18.8267 4.603761 34.276765 0.499708
2006-08-25 09:13:10 51°14.064 2°39.074 18.826 4.605026 34.286137 0.465999
2006-08-25 09:14:11 51°14.041 2°39.056 18.8287 4.603972 34.276748 0.465999
2006-08-25 09:15:11 51°14.018 2°39.038 18.8249 4.603866 34.274685 0.499708
2006-08-25 09:16:11 51°13.995 2°39.021 18.8192 4.605026 34.287322 0.465999
2006-08-25 09:17:11 51°13.972 2°39.003 18.8208 4.604815 34.287931 0.499708
2006-08-25 09:18:11 51°13.95 2°38.986 18.8287 4.604815 34.285562 0.465999
2006-08-25 09:19:11 51°13.929 2°38.969 18.8271 4.60587 34.290806 0.465999
2006-08-25 09:20:11 51°13.908 2°38.951 18.8277 4.605554 34.289943 0.499708
2006-08-25 09:21:10 51°13.885 2°38.928 18.8253 4.605343 34.287592 0.499708
2006-08-25 09:22:11 51°13.829 2°38.898 18.8165 4.605448 34.289064 0.465999
2006-08-25 09:23:12 51°13.769 2°38.977 18.8277 4.604288 34.28294 0.465999
2006-08-25 09:24:12 51°13.814 2°39.061 18.8364 4.604815 34.283786 0.465999
2006-08-25 09:25:11 51°13.906 2°39.095 18.8364 4.604604 34.273147 0.432289
2006-08-25 09:26:11 51°14.03 2°39.141 18.843 4.606081 34.286643 0.39858
2006-08-25 09:27:11 51°14.165 2°39.195 18.8456 4.60703 34.293375 0.432289
2006-08-25 09:28:11 51°14.301 2°39.243 18.8451 4.607346 34.290093 0.432289
2006-08-25 09:29:11 51°14.386 2°39.252 18.8501 4.607451 34.29038 0.432289
2006-08-25 09:30:11 51°14.431 2°39.241 18.8482 4.607557 34.2883 0.465999
2006-08-25 09:31:11 51°14.422 2°39.23 18.8402 4.607768 34.294794 0.432289
2006-08-25 09:32:11 51°14.406 2°39.222 18.8395 4.607451 34.295709 0.533418
2006-08-25 09:33:11 51°14.392 2°39.216 18.8467 4.607135 34.29307 0.465999
2006-08-25 09:34:11 51°14.391 2°39.209 18.8437 4.607978 34.291225 0.432289
2006-08-25 09:35:11 51°14.381 2°39.201 18.861 4.606924 34.288351 0.465999
2006-08-25 09:36:11 51°14.371 2°39.198 18.874 4.609033 34.29114 0.432289
2006-08-25 09:37:11 51°14.364 2°39.192 18.8699 4.610298 34.293405 0.432289
2006-08-25 09:38:11 51°14.35 2°39.185 18.876 4.610403 34.291326 0.432289
2006-08-25 09:39:10 51°14.344 2°39.182 18.8568 4.609349 34.288452 0.39858
2006-08-25 09:40:11 51°14.334 2°39.177 18.8792 4.610087 34.296972 0.432289
2006-08-25 09:41:11 51°14.32 2°39.171 18.8616 4.610825 34.292475 0.432289
2006-08-25 09:42:10 51°14.312 2°39.17 18.8793 4.609665 34.290497 0.465999
2006-08-25 09:43:11 51°14.299 2°39.165 18.8776 4.61072 34.292188 0.432289
2006-08-25 09:44:11 51°14.283 2°39.16 18.8575 4.609982 34.290177 0.432289
2006-08-25 09:45:11 51°14.267 2°39.152 18.8625 4.608295 34.289128 0.465999
2006-08-25 09:46:11 51°14.249 2°39.144 18.8583 4.609033 34.289365 0.432289
2006-08-25 09:47:11 51°14.229 2°39.135 18.8873 4.609771 34.288419 0.39858
2006-08-25 09:48:11 51°14.209 2°39.123 18.8748 4.610403 34.28423 0.39858
2006-08-25 09:49:11 51°14.19 2°39.11 18.8659 4.610087 34.286324 0.432289
2006-08-25 09:50:11 51°14.17 2°39.099 18.8763 4.609349 34.288452 0.432289
2006-08-25 09:51:11 51°14.15 2°39.087 18.8792 4.609665 34.285766 0.432289
2006-08-25 09:52:11 51°14.13 2°39.075 18.885 4.610087 34.285141 0.432289
2006-08-25 09:53:11 51°14.11 2°39.064 18.8694 4.610403 34.288369 0.432289
2006-08-25 09:54:11 51°14.091 2°39.054 18.873 4.610825 34.297208 0.465999
2006-08-25 09:55:11 51°14.072 2°39.045 18.8668 4.609876 34.286932 0.39858
2006-08-25 09:56:12 51°14.053 2°39.037 18.877 4.609244 34.284616 0.39858
2006-08-25 09:57:10 51°14.036 2°39.032 18.8724 4.609454 34.284008 0.465999
2006-08-25 09:58:11 51°14.041 2°39.041 18.8814 4.610087 34.283959 0.465999
2006-08-25 09:59:10 51°14.04 2°39.042 18.8791 4.610087 34.283367 0.465999
2006-08-25 10:00:11 51°14.03 2°39.038 18.8887 4.609876 34.280428 0.465999
2006-08-25 10:01:11 51°14.018 2°39.034 18.9073 4.611668 34.278223 0.465999
2006-08-25 10:02:11 51°14.003 2°39.031 18.8955 4.611458 34.284148 0.465999
2006-08-25 10:03:11 51°13.986 2°39.026 18.8799 4.611247 34.281209 0.432289
2006-08-25 10:04:11 51°13.969 2°39.021 18.881 4.609771 34.281322 0.465999
2006-08-25 10:05:11 51°13.952 2°39.015 18.9072 4.609876 34.277472 0.432289
2006-08-25 10:06:11 51°13.939 2°39.022 18.9107 4.613883 34.286031 0.432289
2006-08-25 10:07:11 51°13.979 2°39.057 18.8908 4.611774 34.282647 0.499708
2006-08-25 10:08:11 51°14.076 2°39.042 18.8849 4.610509 34.282152 0.465999
2006-08-25 10:09:10 51°14.185 2°39.003 18.8724 4.610298 34.280986 0.432289
2006-08-25 10:10:10 51°14.301 2°38.965 18.857 4.610403 34.294875 0.465999
2006-08-25 10:11:11 51°14.419 2°38.935 18.8616 4.60956 34.299679 0.499708
2006-08-25 10:12:11 51°14.527 2°38.906 18.8816 4.610825 34.303717 0.465999
2006-08-25 10:13:11 51°14.574 2°38.863 18.8836 4.612301 34.296497 0.432289
2006-08-25 10:14:11 51°14.579 2°38.826 18.8895 4.61093 34.285667 0.465999
2006-08-25 10:15:11 51°14.56 2°38.811 18.8801 4.608716 34.267217 0.499708
2006-08-25 10:16:11 51°14.537 2°38.799 18.879 4.608716 34.273718 0.499708
2006-08-25 10:17:11 51°14.513 2°38.788 18.8761 4.607978 34.271113 0.499708
2006-08-25 10:18:11 51°14.49 2°38.776 18.8853 4.609454 34.279278 0.499708
2006-08-25 10:19:11 51°14.467 2°38.762 18.8833 4.610087 34.281003 0.465999
2006-08-25 10:20:11 51°14.445 2°38.748 18.8857 4.610509 34.284517 0.432289
2006-08-25 10:21:11 51°14.423 2°38.734 18.894 4.611774 34.289148 0.432289
2006-08-25 10:22:12 51°14.402 2°38.721 18.8883 4.612512 34.293524 0.465999
2006-08-25 10:23:11 51°14.381 2°38.709 18.8982 4.612512 34.297663 0.432289
2006-08-25 10:24:11 51°14.359 2°38.697 18.8947 4.613883 34.29785 0.39858
2006-08-25 10:25:11 51°14.339 2°38.687 18.9247 4.613883 34.300215 0.432289
2006-08-25 10:26:11 51°14.319 2°38.679 18.9065 4.615781 34.301837 0.432289
2006-08-25 10:27:11 51°14.3 2°38.671 18.9115 4.615253 34.306313 0.432289
2006-08-25 10:28:11 51°14.281 2°38.663 18.9089 4.615992 34.306549 0.432289
2006-08-25 10:29:11 51°14.261 2°38.656 18.9087 4.615043 34.303374 0.432289
2006-08-25 10:30:11 51°14.241 2°38.649 18.9006 4.615675 34.30687 0.432289
2006-08-25 10:31:11 51°14.222 2°38.643 18.9048 4.616413 34.317749 0.39858
2006-08-25 10:32:11 51°14.203 2°38.637 18.909 4.616624 34.312409 0.432289
2006-08-25 10:33:11 51°14.182 2°38.631 18.9025 4.616202 34.308305 0.432289
2006-08-25 10:34:11 51°14.163 2°38.624 18.8833 4.615254 34.313409 0.465999
2006-08-25 10:35:11 51°14.143 2°38.618 18.9003 4.613988 34.309373 0.432289
2006-08-25 10:36:11 51°14.124 2°38.613 18.9277 4.615992 34.310687 0.39858
2006-08-25 10:37:11 51°14.106 2°38.61 18.8866 4.618417 34.31256 0.39858
2006-08-25 10:38:12 51°14.087 2°38.608 18.9043 4.613988 34.312331 0.465999
2006-08-25 10:39:11 51°14.074 2°38.615 18.9129 4.615886 34.303897 0.432289
2006-08-25 10:40:11 51°14.137 2°38.656 18.8902 4.61441 34.304607 0.499708
2006-08-25 10:41:11 51°14.252 2°38.711 18.8988 4.614621 34.310504 0.432289
2006-08-25 10:42:11 51°14.373 2°38.771 18.9209 4.613777 34.29047 0.465999
2006-08-25 10:43:11 51°14.461 2°38.81 18.9326 4.610719 34.25202 0.465999
2006-08-25 10:44:12 51°14.485 2°38.828 18.9361 4.606395 34.204253 0.465999
2006-08-25 10:45:11 51°14.484 2°38.836 18.9499 4.603443 34.17969 0.465999
2006-08-25 10:46:12 51°14.473 2°38.841 18.9495 4.603337 34.16999 0.499708
2006-08-25 10:47:10 51°14.461 2°38.846 18.9541 4.603443 34.167338 0.465999
2006-08-25 10:48:11 51°14.446 2°38.846 18.9954 4.604286 34.168474 0.465999
2006-08-25 10:49:11 51°14.43 2°38.847 18.9885 4.608714 34.166508 0.465999
2006-08-25 10:50:11 51°14.412 2°38.847 18.9662 4.608609 34.185604 0.432289
2006-08-25 10:51:12 51°14.393 2°38.847 18.9302 4.60745 34.192425 0.432289
2006-08-25 10:52:12 51°14.375 2°38.848 18.9517 4.605236 34.203436 0.465999
2006-08-25 10:53:11 51°14.356 2°38.848 18.9795 4.60745 34.201251 0.432289
2006-08-25 10:54:12 51°14.335 2°38.849 18.988 4.609769 34.201713 0.432289
2006-08-25 10:55:11 51°14.315 2°38.849 18.9646 4.608926 34.205289 0.432289
2006-08-25 10:56:11 51°14.296 2°38.851 18.9667 4.608082 34.202393 0.432289
2006-08-25 10:57:10 51°14.277 2°38.853 18.9772 4.60882 34.206178 0.39858
2006-08-25 10:58:11 51°14.259 2°38.856 18.9818 4.609664 34.209073 0.39858
2006-08-25 10:59:10 51°14.241 2°38.861 18.987 4.611035 34.211644 0.39858
2006-08-25 11:00:10 51°14.222 2°38.865 18.9895 4.612089 34.218645 0.39858
2006-08-25 11:01:11 51°14.202 2°38.87 18.9894 4.612616 34.220086 0.39858
2006-08-25 11:02:11 51°14.184 2°38.876 18.9898 4.612932 34.222716 0.364871
2006-08-25 11:03:11 51°14.166 2°38.881 18.989 4.613776 34.230317 0.39858
2006-08-25 11:04:11 51°14.148 2°38.888 18.9836 4.613987 34.232659 0.39858
2006-08-25 11:05:10 51°14.131 2°38.896 18.9797 4.614093 34.238246 0.39858
2006-08-25 11:06:11 51°14.112 2°38.905 18.9791 4.614409 34.242643 0.364871
2006-08-25 11:07:10 51°14.095 2°38.913 18.9772 4.614936 34.248794 0.39858
2006-08-25 11:08:11 51°14.076 2°38.921 18.9781 4.614936 34.249383 0.39858
2006-08-25 11:09:11 51°14.058 2°38.929 18.9778 4.615463 34.253768 0.39858
2006-08-25 11:10:11 51°14.04 2°38.937 18.9801 4.61578 34.25522 0.39858
2006-08-25 11:11:10 51°14.024 2°38.946 18.9826 4.616202 34.258139 0.39858
2006-08-25 11:12:12 51°14.006 2°38.955 18.9872 4.616834 34.262222 0.39858
2006-08-25 11:13:10 51°13.99 2°38.963 18.9921 4.617361 34.260714 0.39858
2006-08-25 11:14:11 51°13.973 2°38.973 18.9991 4.618416 34.264768 0.364871
2006-08-25 11:15:11 51°13.957 2°38.983 18.9982 4.618732 34.265631 0.39858
2006-08-25 11:16:11 51°13.94 2°38.994 18.9986 4.619365 34.269712 0.364871
2006-08-25 11:17:10 51°13.925 2°39.005 18.9924 4.620314 34.280549 0.39858
2006-08-25 11:18:11 51°13.91 2°39.017 18.9941 4.620314 34.283496 0.39858
2006-08-25 11:19:10 51°13.897 2°39.029 18.9897 4.620525 34.28466 0.39858
2006-08-25 11:20:11 51°13.884 2°39.044 18.9836 4.621157 34.294048 0.39858
2006-08-25 11:21:11 51°13.873 2°39.067 18.9829 4.621579 34.299326 0.39858
2006-08-25 11:22:11 51°13.862 2°39.087 18.9711 4.621368 34.299931 0.39858
2006-08-25 11:23:11 51°13.852 2°39.11 18.9563 4.620736 34.307061 0.432289
2006-08-25 11:24:10 51°13.842 2°39.133 18.963 4.61926 34.301271 0.39858
2006-08-25 11:25:10 51°13.833 2°39.156 18.9668 4.619682 34.301829 0.432289
2006-08-25 11:26:12 51°13.824 2°39.18 18.9647 4.619787 34.300346 0.432289
2006-08-25 11:27:12 51°13.816 2°39.206 18.9685 4.619892 34.299452 0.432289
2006-08-25 11:28:10 51°13.808 2°39.231 18.9754 4.620736 34.302929 0.39858
2006-08-25 11:29:11 51°13.819 2°39.278 18.9757 4.620525 34.298225 0.39858
2006-08-25 11:30:12 51°13.849 2°39.311 18.9678 4.62063 34.299102 0.432289
2006-08-25 11:31:11 51°13.863 2°39.34 18.9541 4.620209 34.301494 0.432289
2006-08-25 11:32:11 51°13.881 2°39.365 18.9421 4.620103 34.302387 0.499708
2006-08-25 11:33:11 51°13.936 2°39.293 18.96 4.617995 34.298416 0.499708
2006-08-25 11:34:11 51°14.031 2°39.14 18.9924 4.619787 34.288545 0.499708
2006-08-25 11:35:11 51°14.145 2°38.998 19.0082 4.612089 34.204529 0.465999
2006-08-25 11:36:11 51°14.252 2°38.852 18.9841 4.603231 34.120967 0.465999
2006-08-25 11:37:11 51°14.318 2°38.782 18.995 4.59469 34.069364 0.465999
2006-08-25 11:38:11 51°14.334 2°38.768 19.0089 4.590472 34.031989 0.499708
2006-08-25 11:39:10 51°14.338 2°38.748 19.017 4.590367 34.015327 0.499708
2006-08-25 11:40:11 51°14.33 2°38.752 19.003 4.590577 34.010066 0.499708
2006-08-25 11:41:12 51°14.317 2°38.76 18.9869 4.588785 34.005703 0.499708
2006-08-25 11:42:12 51°14.304 2°38.772 18.9907 4.587942 34.006297 0.465999
2006-08-25 11:43:11 51°14.293 2°38.787 18.9894 4.588469 34.009505 0.499708
2006-08-25 11:44:11 51°14.282 2°38.807 19.0035 4.58868 34.010672 0.499708
2006-08-25 11:45:12 51°14.271 2°38.829 18.9984 4.589418 34.006865 0.499708
2006-08-25 11:46:12 51°14.26 2°38.852 19.0064 4.589734 34.013582 0.533418
2006-08-25 11:47:11 51°14.25 2°38.879 19.0029 4.590261 34.012114 0.499708
2006-08-25 11:48:12 51°14.238 2°38.907 18.9967 4.59005 34.015623 0.533418
2006-08-25 11:49:11 51°14.228 2°38.935 18.9957 4.589629 34.015044 0.499708
2006-08-25 11:50:12 51°14.218 2°38.966 18.9975 4.589945 34.018839 0.533418
2006-08-25 11:51:11 51°14.208 2°38.997 19.0021 4.590367 34.020003 0.533418
2006-08-25 11:52:11 51°14.189 2°39.02 19.0167 4.590999 34.020579 0.499708
2006-08-25 11:53:11 51°14.128 2°39.013 19.0253 4.59237 34.020269 0.533418
2006-08-25 11:54:11 51°14.076 2°38.99 19.0396 4.595428 34.035711 0.465999
2006-08-25 11:55:11 51°14.042 2°38.977 19.0376 4.598063 34.043558 0.465999
2006-08-25 11:56:11 51°14.019 2°38.975 19.0508 4.598169 34.049107 0.432289
2006-08-25 11:57:11 51°14 2°38.98 19.034 4.599329 34.051717 0.465999
2006-08-25 11:58:10 51°13.989 2°38.937 19.0527 4.598696 34.052897 0.465999
2006-08-25 11:59:11 51°14.007 2°38.901 19.0619 4.59975 34.050542 0.432289
2006-08-25 12:00:12 51°14.023 2°38.906 19.065 4.599856 34.049664 0.499708
2006-08-25 12:01:10 51°14.023 2°38.933 18.992 4.599434 34.054344 0.533418
2006-08-25 12:02:11 51°14.02 2°38.965 18.968 4.59469 34.06585 0.533418
2006-08-25 12:03:11 51°14.017 2°39 18.9533 4.593003 34.069407 0.499708
2006-08-25 12:04:12 51°14.013 2°39.036 19.0026 4.591844 34.067386 0.567127
2006-08-25 12:05:10 51°14.008 2°39.073 19.012 4.594901 34.053553 0.533418
2006-08-25 12:06:10 51°14.002 2°39.11 18.9912 4.596271 34.056743 0.499708
2006-08-25 12:07:12 51°13.996 2°39.148 18.9858 4.59469 34.064093 0.533418
2006-08-25 12:08:11 51°13.99 2°39.185 18.9989 4.594795 34.063798 0.533418
2006-08-25 12:09:10 51°13.985 2°39.222 19.0356 4.595533 34.059976 0.533418
2006-08-25 12:10:10 51°13.981 2°39.263 19.0156 4.599645 34.059016 0.499708
2006-08-25 12:11:11 51°13.977 2°39.304 19.0367 4.598169 34.068403 0.465999
2006-08-25 12:12:10 51°13.972 2°39.345 19.0603 4.600278 34.053162 0.499708
2006-08-25 12:13:11 51°13.969 2°39.388 19.0615 4.601437 34.057523 0.465999
2006-08-25 12:14:11 51°13.967 2°39.431 19.054 4.601438 34.061612 0.499708
2006-08-25 12:15:12 51°13.965 2°39.475 19.0467 4.600805 34.061624 0.499708
2006-08-25 12:16:12 51°13.963 2°39.519 19.0699 4.600594 34.065719 0.499708
2006-08-25 12:17:11 51°13.962 2°39.561 19.0632 4.603757 34.069748 0.465999
2006-08-25 12:18:11 51°13.961 2°39.605 19.0486 4.602387 34.079421 0.499708
2006-08-25 12:19:12 51°13.96 2°39.647 19.0613 4.602281 34.075038 0.465999
2006-08-25 12:20:10 51°13.959 2°39.688 19.099 4.604073 34.067114 0.465999
2006-08-25 12:21:12 51°13.958 2°39.731 19.138 4.605128 34.060674 0.465999
2006-08-25 12:22:12 51°13.956 2°39.773 19.1916 4.609872 34.052741 0.432289
2006-08-25 12:23:10 51°13.956 2°39.813 19.1945 4.613773 34.055907 0.465999
2006-08-25 12:24:10 51°13.955 2°39.854 19.2161 4.614933 34.060844 0.432289
2006-08-25 12:25:12 51°13.955 2°39.899 19.2373 4.617041 34.060826 0.432289
2006-08-25 12:26:11 51°13.977 2°39.957 19.1749 4.616725 34.06461 0.432289
2006-08-25 12:27:12 51°14.017 2°39.978 19.1245 4.612086 34.064659 0.499708
2006-08-25 12:28:12 51°14.043 2°39.936 19.0949 4.606393 34.069992 0.499708
2006-08-25 12:29:11 51°14.069 2°39.867 19.0994 4.604073 34.061858 0.499708
2006-08-25 12:30:12 51°14.105 2°39.79 19.0562 4.60323 34.044363 0.499708
2006-08-25 12:31:12 51°14.141 2°39.71 19.0687 4.598696 34.043549 0.465999
2006-08-25 12:32:12 51°14.187 2°39.639 19.1545 4.600699 34.029226 0.465999
2006-08-25 12:33:11 51°14.222 2°39.585 19.1303 4.607658 34.038492 0.465999
2006-08-25 12:34:10 51°14.235 2°39.534 19.1086 4.607447 34.046066 0.432289
2006-08-25 12:35:12 51°14.25 2°39.5 19.1389 4.606287 34.048701 0.465999
2006-08-25 12:36:11 51°14.265 2°39.505 19.1105 4.60829 34.050719 0.465999
2006-08-25 12:37:10 51°14.273 2°39.526 19.1017 4.606498 34.064445 0.533418
2006-08-25 12:38:12 51°14.282 2°39.552 19.0789 4.606815 34.073487 0.533418
2006-08-25 12:39:11 51°14.287 2°39.576 19.0783 4.604179 34.067988 0.567127
2006-08-25 12:40:11 51°14.291 2°39.601 19.0328 4.603968 34.079093 0.567127
2006-08-25 12:41:12 51°14.301 2°39.637 19.1138 4.601859 34.073293 0.533418
2006-08-25 12:42:11 51°14.306 2°39.681 19.0507 4.607342 34.071434 0.499708
2006-08-25 12:43:12 51°14.306 2°39.724 19.0313 4.602703 34.0838 0.567127
2006-08-25 12:44:11 51°14.306 2°39.769 18.9734 4.602281 34.08264 0.533418
2006-08-25 12:45:12 51°14.305 2°39.815 18.9668 4.597748 34.105321 0.533418
2006-08-25 12:46:12 51°14.306 2°39.861 18.975 4.597432 34.097415 0.567127
2006-08-25 12:47:11 51°14.31 2°39.911 19.0146 4.59817 34.098271 0.567127
2006-08-25 12:48:12 51°14.313 2°39.969 19.0509 4.600278 34.090007 0.600836
2006-08-25 12:49:12 51°14.323 2°40.004 19.1151 4.603757 34.072669 0.533418
2006-08-25 12:50:12 51°14.34 2°39.977 19.0064 4.606288 34.07846 0.567127
2006-08-25 12:51:12 51°14.316 2°39.913 19.1065 4.600068 34.100557 0.499708
2006-08-25 12:52:12 51°14.293 2°39.822 19.0518 4.608607 34.096521 0.567127
2006-08-25 12:53:11 51°14.283 2°39.745 19.0224 4.609346 34.120184 0.567127
2006-08-25 12:54:11 51°14.272 2°39.657 19.0274 4.607027 34.140177 0.533418
2006-08-25 12:55:12 51°14.261 2°39.559 19.0203 4.609241 34.152699 0.600836
2006-08-25 12:56:12 51°14.243 2°39.491 19.0149 4.61135 34.174902 0.533418
2006-08-25 12:57:12 51°14.255 2°39.477 18.9922 4.612194 34.191302 0.600836
2006-08-25 12:58:12 51°14.262 2°39.505 18.9826 4.611983 34.200126 0.634546
2006-08-25 12:59:12 51°14.267 2°39.537 18.9747 4.610718 34.203721 0.634546
2006-08-25 13:00:10 51°14.271 2°39.572 18.9826 4.60998 34.199349 0.668255
2006-08-25 13:01:11 51°14.276 2°39.61 18.9825 4.610613 34.198728 0.668255
2006-08-25 13:02:12 51°14.28 2°39.651 18.9908 4.610718 34.202544 0.634546
2006-08-25 13:03:10 51°14.285 2°39.692 18.9868 4.611772 34.202489 0.634546
2006-08-25 13:04:12 51°14.29 2°39.734 18.9807 4.610613 34.199904 0.634546
2006-08-25 13:05:12 51°14.295 2°39.774 18.9773 4.610402 34.199915 0.668255
2006-08-25 13:06:12 51°14.301 2°39.813 18.975 4.610085 34.19905 0.634546
2006-08-25 13:07:12 51°14.306 2°39.852 18.976 4.609136 34.194689 0.600836
2006-08-25 13:08:12 51°14.275 2°39.874 19.003 4.609874 34.196709 0.634546
2006-08-25 13:09:10 51°14.212 2°40.014 19.0347 4.611772 34.202489 0.600836
2006-08-25 13:10:12 51°14.23 2°40.321 19.0748 4.616517 34.197258 0.533418
2006-08-25 13:11:11 51°14.25 2°40.666 19.0982 4.617043 34.174658 0.533418
2006-08-25 13:12:10 51°14.264 2°41.016 19.1535 4.614196 34.129983 0.499708
2006-08-25 13:13:12 51°14.283 2°41.383 19.2189 4.614617 34.075695 0.465999
2006-08-25 13:14:12 51°14.301 2°41.738 19.1948 4.613351 34.048928 0.465999
2006-08-25 13:15:12 51°14.321 2°42.096 19.2112 4.614933 34.056189 0.499708
2006-08-25 13:16:12 51°14.341 2°42.451 19.222 4.619467 34.089023 0.465999
2006-08-25 13:17:12 51°14.374 2°42.807 19.017 4.627586 34.156751 0.499708
2006-08-25 13:18:12 51°14.395 2°43.165 18.9768 4.619681 34.255854 0.600836
2006-08-25 13:19:12 51°14.42 2°43.523 18.9728 4.612089 34.218057 0.567127
2006-08-25 13:20:12 51°14.451 2°43.882 18.9854 4.611667 34.212197 0.600836
2006-08-25 13:21:12 51°14.472 2°44.241 19.0069 4.614725 34.222908 0.567127
2006-08-25 13:22:12 51°14.497 2°44.597 19.0049 4.618099 34.24683 0.567127
2006-08-25 13:23:12 51°14.523 2°44.952 19.0562 4.61736 34.211305 0.567127
2006-08-25 13:24:12 51°14.546 2°45.308 18.9973 4.615673 34.196124 0.600836
2006-08-25 13:25:12 51°14.565 2°45.658 18.9162 4.607344 34.168625 0.600836
2006-08-25 13:26:12 51°14.59 2°46.003 18.9226 4.598909 34.15491 0.600836
2006-08-25 13:27:12 51°14.613 2°46.35 18.9638 4.601334 34.163323 0.567127
2006-08-25 13:28:11 51°14.637 2°46.691 18.9731 4.606817 34.177757 0.600836
2006-08-25 13:29:12 51°14.666 2°47.048 18.9669 4.606922 34.175107 0.634546
2006-08-25 13:30:12 51°14.692 2°47.401 18.9507 4.605657 34.17752 0.634546
2006-08-25 13:31:12 51°14.719 2°47.755 18.9904 4.605868 34.181038 0.634546
2006-08-25 13:32:12 51°14.739 2°48.107 18.9935 4.609136 34.172361 0.668255
2006-08-25 13:33:12 51°14.756 2°48.458 18.9526 4.602177 34.126869 0.701965
2006-08-25 13:34:12 51°14.779 2°48.806 18.9132 4.586466 34.02972 0.803093
2006-08-25 13:35:12 51°14.802 2°49.155 18.9194 4.572442 33.930707 0.836802
2006-08-25 13:36:12 51°14.83 2°49.505 18.8954 4.566748 33.886304 0.803093
2006-08-25 13:37:12 51°14.856 2°49.856 18.8846 4.557575 33.837467 0.836802
2006-08-25 13:38:12 51°14.88 2°50.21 18.8786 4.553674 33.809694 0.836802
2006-08-25 13:39:12 51°14.902 2°50.562 18.8604 4.548296 33.771973 0.904221
2006-08-25 13:40:12 51°14.916 2°50.915 18.856 4.539229 33.713448 0.93793
2006-08-25 13:41:12 51°14.931 2°51.268 18.9011 4.534695 33.671681 0.93793
2006-08-25 13:42:12 51°14.928 2°51.616 18.9198 4.535432 33.641266 0.93793
2006-08-25 13:43:10 51°14.894 2°51.947 18.9113 4.533007 33.615916 1.005349
2006-08-25 13:44:12 51°14.865 2°52.302 18.9061 4.531214 33.600456 1.072768
2006-08-25 13:45:12 51°14.835 2°52.644 18.9034 4.527524 33.577917 1.072768
2006-08-25 13:46:12 51°14.802 2°52.984 18.9113 4.523834 33.549014 1.106477
2006-08-25 13:47:11 51°14.763 2°53.311 18.9111 4.521197 33.516161 1.072768
2006-08-25 13:48:10 51°14.721 2°53.638 18.9003 4.517085 33.48723 1.106477
2006-08-25 13:49:10 51°14.674 2°53.971 18.8723 4.532269 33.628901 1.140187
2006-08-25 13:50:11 51°14.615 2°54.308 19.0151 4.542075 33.708631 1.173896
2006-08-25 13:51:10 51°14.536 2°54.615 19.022 4.539964 33.567938 1.072768
2006-08-25 13:52:12 51°14.44 2°54.933 18.9507 4.521302 33.452532 1.039059
2006-08-25 13:53:10 51°14.32 2°55.173 19.1067 4.499898 33.294212 1.039059
2006-08-25 13:54:12 51°14.193 2°55.361 19.3264 4.368949 32.116141 0.432289
2006-08-25 13:55:11 51°14.072 2°55.46 19.3886 4.370003 32.122052 0.432289
2006-08-25 13:56:12 51°13.966 2°55.535 19.4719 4.36684 32.092781 0.39858
2006-08-25 13:57:11 51°13.861 2°55.611 19.5467 4.365575 32.079648 0.39858
2006-08-25 13:58:11 51°13.767 2°55.701 19.6266 4.364626 32.067469 0.432289
2006-08-25 13:59:10 51°13.713 2°55.792 19.6986 4.363994 32.0546 0.39858
2006-08-25 14:00:12 51°13.671 2°55.875 19.785 4.363677 32.050908 0.432289
2006-08-25 14:01:11 51°13.645 2°55.935 19.8633 4.363572 32.045111 0.432289
2006-08-25 14:02:10 51°13.624 2°55.99 19.9368 4.363677 32.039951 0.432289
2006-08-25 14:03:11 51°13.611 2°56.041 20.0114 4.363993 32.035974 0.39858
2006-08-25 14:04:12 51°13.605 2°56.072 20.1033 4.364415 32.033959 0.432289
2006-08-25 14:05:11 51°13.599 2°56.09 20.1977 4.365047 32.035862 0.39858